createdAt,value
2019-04-20T00:00:04.609Z,3.40
2019-04-20T00:01:01.439Z,3.60
2019-04-20T00:02:53.927Z,3.40
2019-04-20T00:03:53.372Z,3.30
2019-04-20T00:05:45.435Z,3.30
2019-04-20T00:06:49.427Z,3.40
2019-04-20T00:08:39.487Z,3.30
2019-04-20T00:09:39.558Z,3.30
2019-04-20T00:11:41.490Z,3.40
2019-04-20T00:12:36.878Z,3.50
2019-04-20T00:14:26.330Z,3.50
2019-04-20T00:15:20.245Z,3.50
2019-04-20T00:17:13.667Z,3.50
2019-04-20T00:18:13.537Z,3.70
2019-04-20T00:20:11.646Z,3.40
2019-04-20T00:21:08.649Z,3.40
2019-04-20T00:22:57.022Z,3.30
2019-04-20T00:23:56.677Z,3.20
2019-04-20T00:26:02.279Z,3.40
2019-04-20T00:29:02.987Z,3.50
2019-04-20T00:30:00.327Z,3.20
2019-04-20T00:31:48.062Z,3.50
2019-04-20T00:32:46.902Z,3.40
2019-04-20T00:34:30.018Z,3.50
2019-04-20T00:35:25.133Z,3.30
2019-04-20T00:37:17.068Z,3.10
2019-04-20T00:38:16.614Z,3.50
2019-04-20T00:40:09.813Z,3.40
2019-04-20T00:41:12.010Z,3.50
2019-04-20T00:43:01.892Z,3.50
2019-04-20T00:44:07.232Z,3.40
2019-04-20T00:46:04.880Z,3.70
2019-04-20T00:47:04.806Z,3.50
2019-04-20T00:48:53.641Z,3.50
2019-04-20T00:49:58.061Z,3.40
2019-04-20T00:51:52.580Z,3.40
2019-04-20T00:52:55.554Z,3.40
2019-04-20T00:54:30.427Z,3.70
2019-04-20T00:55:29.322Z,3.40
2019-04-20T00:57:34.063Z,3.30
2019-04-20T00:58:31.013Z,3.50
2019-04-20T01:00:31.574Z,3.40
2019-04-20T01:01:32.117Z,3.40
2019-04-20T01:03:20.757Z,3.50
2019-04-20T01:04:23.878Z,3.50
2019-04-20T01:06:17.415Z,3.30
2019-04-20T01:07:11.670Z,3.30
2019-04-20T01:08:49.233Z,3.40
2019-04-20T01:09:49.934Z,3.30
2019-04-20T01:11:45.181Z,3.50
2019-04-20T01:12:43.720Z,3.30
2019-04-20T01:14:40.619Z,3.50
2019-04-20T01:15:46.488Z,3.20
2019-04-20T01:17:25.356Z,3.30
2019-04-20T01:18:25.542Z,3.30
2019-04-20T01:20:17.391Z,3.40
2019-04-20T01:21:21.650Z,3.30
2019-04-20T01:23:14.225Z,3.30
2019-04-20T01:24:14.696Z,3.40
2019-04-20T01:26:07.100Z,3.60
2019-04-20T01:27:04.128Z,3.40
2019-04-20T01:29:06.440Z,3.30
2019-04-20T01:30:07.112Z,3.50
2019-04-20T01:32:00.904Z,3.60
2019-04-20T01:33:02.521Z,3.40
2019-04-20T01:34:50.201Z,3.30
2019-04-20T01:35:53.475Z,3.40
2019-04-20T01:37:46.954Z,3.20
2019-04-20T01:38:45.798Z,3.30
2019-04-20T01:40:23.145Z,3.30
2019-04-20T01:41:22.379Z,3.50
2019-04-20T01:43:14.282Z,3.40
2019-04-20T01:44:18.010Z,3.50
2019-04-20T01:46:11.836Z,3.50
2019-04-20T01:47:08.285Z,3.40
2019-04-20T01:48:59.937Z,3.30
2019-04-20T01:50:04.708Z,3.00
2019-04-20T01:51:57.513Z,3.60
2019-04-20T01:53:03.492Z,3.30
2019-04-20T01:55:04.853Z,3.30
2019-04-20T01:55:59.669Z,3.30
2019-04-20T01:57:56.225Z,3.50
2019-04-20T01:58:55.292Z,3.50
2019-04-20T02:00:30.742Z,3.30
2019-04-20T02:01:31.017Z,3.40
2019-04-20T02:03:22.738Z,3.30
2019-04-20T02:04:25.253Z,3.30
2019-04-20T02:06:14.879Z,3.40
2019-04-20T02:07:11.609Z,3.40
2019-04-20T02:09:08.007Z,3.30
2019-04-20T02:10:06.562Z,3.50
2019-04-20T02:11:55.737Z,3.40
2019-04-20T02:12:59.416Z,3.20
2019-04-20T02:14:52.235Z,3.40
2019-04-20T02:15:51.221Z,3.40
2019-04-20T02:17:46.164Z,3.50
2019-04-20T02:18:51.355Z,3.60
2019-04-20T02:20:51.494Z,3.60
2019-04-20T02:21:47.604Z,3.50
2019-04-20T02:23:33.839Z,3.20
2019-04-20T02:24:23.727Z,3.50
2019-04-20T02:26:15.906Z,3.60
2019-04-20T02:27:14.775Z,3.50
2019-04-20T02:29:30.701Z,3.40
2019-04-20T02:30:40.414Z,3.40
2019-04-20T02:46:24.466Z,3.20
2019-04-20T02:49:10.539Z,3.50
2019-04-20T02:49:56.710Z,3.70
2019-04-20T02:51:52.662Z,3.50
2019-04-20T02:52:55.928Z,3.40
2019-04-20T02:54:45.092Z,3.70
2019-04-20T02:55:47.742Z,3.30
2019-04-20T02:57:39.954Z,3.60
2019-04-20T02:58:41.961Z,3.40
2019-04-20T03:00:24.045Z,3.40
2019-04-20T03:01:18.816Z,3.40
2019-04-20T03:03:00.026Z,3.40
2019-04-20T03:03:53.886Z,3.40
2019-04-20T03:05:51.772Z,3.20
2019-04-20T03:06:58.409Z,3.50
2019-04-20T03:08:58.851Z,3.40
2019-04-20T03:09:54.311Z,3.50
2019-04-20T03:11:53.945Z,3.40
2019-04-20T03:12:45.006Z,3.40
2019-04-20T03:14:32.444Z,3.60
2019-04-20T03:15:37.567Z,3.40
2019-04-20T03:17:37.113Z,3.40
2019-04-20T03:18:32.360Z,3.60
2019-04-20T03:20:24.430Z,3.40
2019-04-20T03:21:24.837Z,3.50
2019-04-20T03:23:36.106Z,3.40
2019-04-20T03:24:20.427Z,3.50
2019-04-20T03:26:08.663Z,3.60
2019-04-20T03:26:59.818Z,3.40
2019-04-20T03:28:54.088Z,3.60
2019-04-20T03:29:58.930Z,3.40
2019-04-20T03:32:22.295Z,3.40
2019-04-20T03:35:52.775Z,3.50
2019-04-20T03:37:38.067Z,3.30
2019-04-20T03:38:33.050Z,3.50
2019-04-20T03:40:21.600Z,3.60
2019-04-20T03:41:17.478Z,3.40
2019-04-20T03:42:59.024Z,3.40
2019-04-20T03:44:04.149Z,3.40
2019-04-20T03:45:56.171Z,3.40
2019-04-20T03:46:57.182Z,3.60
2019-04-20T03:48:58.636Z,3.80
2019-04-20T03:50:06.232Z,3.40
2019-04-20T03:51:58.772Z,3.30
2019-04-20T03:52:54.235Z,3.40
2019-04-20T03:54:38.664Z,3.60
2019-04-20T03:55:44.765Z,3.50
2019-04-20T03:57:43.775Z,3.40
2019-04-20T03:58:33.529Z,3.70
2019-04-20T04:00:31.944Z,3.40
2019-04-20T04:01:43.161Z,3.50
2019-04-20T04:03:31.702Z,3.40
2019-04-20T04:04:22.566Z,3.90
2019-04-20T04:06:08.355Z,3.50
2019-04-20T04:06:58.054Z,3.60
2019-04-20T04:08:58.916Z,3.60
2019-04-20T04:10:08.448Z,3.40
2019-04-20T04:11:55.046Z,3.50
2019-04-20T04:12:41.757Z,3.60
2019-04-20T04:14:30.500Z,3.60
2019-04-20T04:15:31.637Z,3.40
2019-04-20T04:17:28.771Z,3.80
2019-04-20T04:18:30.117Z,3.50
2019-04-20T04:20:17.755Z,3.50
2019-04-20T04:21:21.756Z,3.60
2019-04-20T04:23:24.626Z,3.50
2019-04-20T04:24:22.931Z,3.80
2019-04-20T04:26:17.484Z,3.50
2019-04-20T04:27:14.718Z,3.40
2019-04-20T04:29:12.676Z,3.60
2019-04-20T04:30:02.820Z,3.90
2019-04-20T04:32:12.817Z,3.50
2019-04-20T04:33:20.483Z,3.90
2019-04-20T04:34:54.212Z,3.50
2019-04-20T04:35:51.597Z,3.40
2019-04-20T04:37:50.284Z,3.60
2019-04-20T04:38:47.499Z,3.70
2019-04-20T04:40:51.494Z,3.70
2019-04-20T04:41:36.516Z,4.40
2019-04-20T04:43:34.452Z,3.40
2019-04-20T04:44:24.256Z,3.40
2019-04-20T04:46:03.921Z,3.80
2019-04-20T04:47:06.427Z,3.60
2019-04-20T04:49:06.849Z,3.60
2019-04-20T04:50:03.472Z,3.60
2019-04-20T04:51:56.600Z,3.60
2019-04-20T04:52:57.351Z,3.70
2019-04-20T04:54:49.631Z,3.60
2019-04-20T04:55:50.093Z,3.70
2019-04-20T04:57:32.359Z,3.70
2019-04-20T04:58:31.937Z,3.80
2019-04-20T05:00:28.185Z,3.60
2019-04-20T05:01:27.404Z,3.80
2019-04-20T05:03:35.857Z,3.60
2019-04-20T05:04:37.831Z,3.50
2019-04-20T05:06:22.727Z,3.60
2019-04-20T05:07:20.182Z,3.60
2019-04-20T05:09:03.185Z,3.70
2019-04-20T05:09:59.243Z,3.80
2019-04-20T05:11:59.704Z,3.60
2019-04-20T05:12:51.798Z,3.60
2019-04-20T05:14:53.696Z,3.90
2019-04-20T05:15:58.359Z,3.70
2019-04-20T05:17:57.837Z,4.00
2019-04-20T05:19:00.548Z,3.90
2019-04-20T05:20:47.528Z,3.70
2019-04-20T05:21:53.856Z,3.60
2019-04-20T05:23:32.927Z,3.70
2019-04-20T05:24:33.563Z,3.60
2019-04-20T05:26:30.066Z,3.50
2019-04-20T05:27:31.283Z,3.50
2019-04-20T05:29:13.435Z,3.80
2019-04-20T05:30:03.734Z,3.60
2019-04-20T05:32:03.490Z,3.60
2019-04-20T05:33:03.283Z,4.00
2019-04-20T05:35:12.288Z,3.80
2019-04-20T05:36:06.582Z,3.50
2019-04-20T05:38:06.411Z,3.50
2019-04-20T05:39:10.250Z,3.70
2019-04-20T05:40:53.921Z,3.60
2019-04-20T05:41:45.540Z,3.60
2019-04-20T05:43:41.478Z,3.70
2019-04-20T05:44:47.166Z,3.50
2019-04-20T05:46:36.235Z,3.80
2019-04-20T05:47:34.359Z,4.00
2019-04-20T05:49:25.878Z,3.70
2019-04-20T05:50:32.338Z,3.80
2019-04-20T05:53:24.101Z,3.80
2019-04-20T05:55:16.287Z,3.50
2019-04-20T05:56:10.616Z,3.70
2019-04-20T05:58:09.998Z,3.60
2019-04-20T05:59:09.795Z,3.60
2019-04-20T06:01:01.655Z,3.50
2019-04-20T06:03:48.839Z,3.80
2019-04-20T06:05:00.375Z,3.60
2019-04-20T06:06:44.986Z,3.60
2019-04-20T06:07:42.347Z,3.90
2019-04-20T06:09:33.501Z,3.40
2019-04-20T06:10:43.675Z,3.60
2019-04-20T06:12:26.975Z,3.90
2019-04-20T06:13:17.381Z,4.00
2019-04-20T06:15:14.080Z,3.60
2019-04-20T06:16:14.413Z,3.70
2019-04-20T06:18:06.590Z,3.90
2019-04-20T06:19:24.102Z,3.60
2019-04-20T06:21:16.132Z,3.60
2019-04-20T06:22:03.392Z,3.70
2019-04-20T06:23:56.695Z,3.90
2019-04-20T06:25:01.333Z,3.80
2019-04-20T06:26:53.669Z,3.80
2019-04-20T06:27:46.055Z,4.10
2019-04-20T06:29:37.671Z,3.60
2019-04-20T06:30:30.933Z,3.70
2019-04-20T06:32:33.852Z,3.70
2019-04-20T06:33:38.724Z,4.00
2019-04-20T06:36:29.400Z,3.60
2019-04-20T06:38:26.653Z,3.80
2019-04-20T06:39:16.064Z,4.00
2019-04-20T06:41:13.924Z,3.80
2019-04-20T06:42:11.328Z,3.80
2019-04-20T06:44:02.568Z,3.60
2019-04-20T06:45:02.244Z,3.70
2019-04-20T06:46:58.893Z,3.70
2019-04-20T06:47:52.007Z,3.60
2019-04-20T06:49:37.992Z,3.60
2019-04-20T06:50:39.040Z,3.60
2019-04-20T06:52:32.580Z,3.70
2019-04-20T06:53:41.131Z,3.80
2019-04-20T06:55:28.905Z,3.60
2019-04-20T06:56:29.115Z,3.90
2019-04-20T06:58:36.091Z,4.00
2019-04-20T06:59:27.772Z,3.80
2019-04-20T07:01:15.353Z,3.90
2019-04-20T07:02:17.065Z,3.80
2019-04-20T07:04:21.188Z,3.60
2019-04-20T07:05:10.036Z,3.70
2019-04-20T07:07:07.310Z,3.90
2019-04-20T07:08:03.002Z,3.60
2019-04-20T07:10:04.841Z,3.60
2019-04-20T07:10:52.758Z,3.90
2019-04-20T07:12:37.945Z,3.50
2019-04-20T07:13:30.909Z,3.80
2019-04-20T07:15:44.865Z,3.70
2019-04-20T07:16:28.305Z,3.80
2019-04-20T07:18:26.144Z,3.90
2019-04-20T07:19:22.947Z,3.80
2019-04-20T07:21:28.744Z,4.10
2019-04-20T07:22:26.364Z,3.80
2019-04-20T07:24:10.653Z,3.70
2019-04-20T07:25:07.931Z,3.80
2019-04-20T07:27:03.081Z,3.70
2019-04-20T07:28:00.771Z,3.60
2019-04-20T07:29:46.337Z,3.80
2019-04-20T07:30:51.495Z,3.80
2019-04-20T07:32:49.659Z,4.00
2019-04-20T07:33:46.417Z,3.60
2019-04-20T07:35:35.728Z,3.90
2019-04-20T07:36:40.040Z,3.70
2019-04-20T07:39:28.062Z,3.70
2019-04-20T07:41:29.859Z,3.80
2019-04-20T07:42:27.049Z,3.60
2019-04-20T07:44:37.638Z,4.20
2019-04-20T07:45:16.985Z,3.90
2019-04-20T07:47:07.278Z,3.70
2019-04-20T07:48:20.647Z,4.10
2019-04-20T07:49:50.582Z,3.70
2019-04-20T07:50:44.868Z,3.80
2019-04-20T07:52:38.649Z,3.70
2019-04-20T07:53:40.290Z,3.90
2019-04-20T07:55:50.716Z,3.80
2019-04-20T07:56:42.568Z,3.80
2019-04-20T07:58:25.087Z,4.10
2019-04-20T07:59:23.388Z,3.70
2019-04-20T08:01:30.139Z,3.80
2019-04-20T08:02:33.865Z,3.70
2019-04-20T08:04:13.041Z,3.70
2019-04-20T08:05:10.797Z,3.60
2019-04-20T08:06:54.742Z,3.70
2019-04-20T08:07:57.570Z,3.70
2019-04-20T08:09:47.822Z,3.50
2019-04-20T08:10:53.922Z,3.80
2019-04-20T08:13:51.313Z,3.90
2019-04-20T08:18:42.863Z,3.80
2019-04-20T08:19:35.606Z,3.60
2019-04-20T08:21:28.745Z,3.80
2019-04-20T08:22:26.589Z,3.70
2019-04-20T08:24:17.614Z,3.80
2019-04-20T08:25:14.297Z,4.00
2019-04-20T08:26:57.233Z,3.70
2019-04-20T08:27:52.832Z,3.80
2019-04-20T08:29:57.721Z,3.90
2019-04-20T08:31:02.388Z,3.70
2019-04-20T08:32:51.835Z,3.80
2019-04-20T08:34:09.045Z,3.80
2019-04-20T08:35:53.972Z,3.80
2019-04-20T08:36:55.696Z,3.80
2019-04-20T08:41:28.693Z,3.80
2019-04-20T08:42:40.486Z,3.90
2019-04-20T08:45:32.730Z,3.70
2019-04-20T08:47:42.650Z,3.70
2019-04-20T08:50:11.624Z,3.70
2019-04-20T08:51:09.049Z,4.20
2019-04-20T08:53:17.457Z,3.80
2019-04-20T08:53:59.984Z,3.80
2019-04-20T08:55:45.034Z,4.00
2019-04-20T08:56:42.409Z,3.70
2019-04-20T08:58:24.849Z,4.30
2019-04-20T08:59:25.432Z,3.80
2019-04-20T09:01:24.235Z,3.90
2019-04-20T09:02:18.555Z,4.10
2019-04-20T09:04:15.404Z,3.80
2019-04-20T09:05:18.584Z,3.50
2019-04-20T09:07:08.348Z,3.90
2019-04-20T09:08:12.468Z,3.80
2019-04-20T09:10:16.615Z,3.70
2019-04-20T09:11:12.840Z,3.90
2019-04-20T09:13:01.467Z,3.70
2019-04-20T09:13:50.377Z,3.80
2019-04-20T09:15:36.885Z,3.80
2019-04-20T09:16:45.640Z,3.90
2019-04-20T09:18:40.018Z,3.80
2019-04-20T09:19:44.540Z,4.00
2019-04-20T09:21:29.746Z,4.00
2019-04-20T09:22:32.310Z,3.80
2019-04-20T09:24:38.204Z,4.00
2019-04-20T09:25:50.108Z,3.80
2019-04-20T09:27:18.135Z,3.70
2019-04-20T09:28:15.627Z,4.10
2019-04-20T09:30:13.707Z,4.20
2019-04-20T09:31:15.325Z,3.90
2019-04-20T09:33:09.307Z,4.30
2019-04-20T09:34:07.452Z,4.40
2019-04-20T09:35:56.991Z,3.90
2019-04-20T09:36:53.715Z,4.10
2019-04-20T09:38:44.234Z,3.90
2019-04-20T09:39:51.406Z,4.00
2019-04-20T09:41:47.073Z,3.90
2019-04-20T09:42:25.567Z,3.80
2019-04-20T09:44:17.776Z,4.10
2019-04-20T09:45:23.317Z,4.30
2019-04-20T09:47:10.553Z,4.00
2019-04-20T09:48:16.658Z,4.20
2019-04-20T09:50:19.754Z,4.20
2019-04-20T09:51:21.967Z,4.10
2019-04-20T09:53:10.203Z,4.20
2019-04-20T09:54:04.096Z,4.00
2019-04-20T09:56:01.866Z,4.10
2019-04-20T09:57:11.760Z,4.20
2019-04-20T09:59:03.719Z,4.10
2019-04-20T09:59:58.285Z,4.30
2019-04-20T10:01:39.553Z,4.10
2019-04-20T10:02:33.465Z,4.30
2019-04-20T10:04:23.789Z,4.20
2019-04-20T10:05:23.279Z,4.10
2019-04-20T10:07:18.024Z,4.20
2019-04-20T10:08:15.418Z,4.30
2019-04-20T10:10:18.803Z,4.10
2019-04-20T10:11:07.555Z,4.20
2019-04-20T10:12:58.411Z,4.10
2019-04-20T10:13:58.549Z,4.00
2019-04-20T10:15:50.448Z,4.20
2019-04-20T10:16:51.732Z,4.00
2019-04-20T10:18:47.173Z,4.00
2019-04-20T10:19:44.478Z,4.10
2019-04-20T10:21:34.521Z,4.00
2019-04-20T10:22:34.463Z,4.10
2019-04-20T10:24:26.600Z,4.10
2019-04-20T10:25:26.721Z,4.20
2019-04-20T10:27:18.805Z,4.00
2019-04-20T10:28:19.417Z,4.20
2019-04-20T10:30:10.714Z,4.10
2019-04-20T10:31:10.750Z,4.00
2019-04-20T10:33:03.564Z,4.10
2019-04-20T10:34:03.876Z,4.10
2019-04-20T10:35:54.804Z,4.20
2019-04-20T10:36:55.518Z,4.20
2019-04-20T10:38:46.820Z,4.00
2019-04-20T10:39:46.995Z,4.00
2019-04-20T10:41:46.992Z,4.20
2019-04-20T10:42:38.806Z,4.30
2019-04-20T10:44:30.889Z,4.30
2019-04-20T10:45:30.928Z,4.20
2019-04-20T10:47:23.147Z,4.20
2019-04-20T10:48:23.536Z,4.20
2019-04-20T10:50:15.062Z,4.30
2019-04-20T10:51:15.622Z,4.30
2019-04-20T10:53:07.955Z,4.40
2019-04-20T10:54:07.043Z,4.50
2019-04-20T10:55:59.132Z,4.50
2019-04-20T10:56:59.457Z,4.20
2019-04-20T10:58:51.696Z,4.50
2019-04-20T10:59:51.960Z,5.00
2019-04-20T11:01:43.440Z,4.10
2019-04-20T11:02:45.845Z,4.30
2019-04-20T11:04:36.714Z,4.50
2019-04-20T11:05:35.516Z,4.50
2019-04-20T11:07:28.336Z,4.50
2019-04-20T11:08:28.593Z,4.20
2019-04-20T11:10:25.264Z,4.30
2019-04-20T11:11:25.246Z,4.30
2019-04-20T11:13:11.771Z,4.30
2019-04-20T11:14:18.470Z,4.40
2019-04-20T11:16:04.280Z,4.70
2019-04-20T11:17:04.410Z,4.50
2019-04-20T11:18:55.636Z,4.50
2019-04-20T11:19:55.559Z,4.50
2019-04-20T11:21:48.232Z,4.00
2019-04-20T11:22:48.545Z,4.50
2019-04-20T11:24:40.531Z,4.40
2019-04-20T11:25:40.055Z,4.60
2019-04-20T11:27:32.212Z,4.40
2019-04-20T11:28:32.349Z,4.50
2019-04-20T11:30:23.838Z,4.50
2019-04-20T11:31:26.858Z,4.20
2019-04-20T11:33:16.185Z,4.40
2019-04-20T11:34:27.160Z,4.50
2019-04-20T11:36:07.909Z,4.50
2019-04-20T11:37:08.878Z,4.30
2019-04-20T11:39:00.749Z,4.50
2019-04-20T11:40:01.191Z,4.50
2019-04-20T11:41:51.971Z,4.80
2019-04-20T11:42:53.280Z,4.50
2019-04-20T11:44:44.806Z,5.00
2019-04-20T11:45:44.694Z,4.70
2019-04-20T11:47:37.486Z,4.80
2019-04-20T11:48:37.224Z,4.50
2019-04-20T11:50:29.556Z,4.80
2019-04-20T11:51:29.694Z,4.40
2019-04-20T11:53:21.540Z,4.50
2019-04-20T11:54:20.505Z,4.50
2019-04-20T11:56:19.214Z,4.50
2019-04-20T11:57:13.281Z,4.80
2019-04-20T11:59:05.289Z,4.30
2019-04-20T12:00:05.459Z,4.70
2019-04-20T12:02:01.120Z,4.80
2019-04-20T12:02:58.815Z,4.70
2019-04-20T12:04:59.858Z,4.70
2019-04-20T12:05:53.776Z,4.40
2019-04-20T12:07:40.603Z,4.60
2019-04-20T12:08:42.146Z,4.50
2019-04-20T12:10:33.137Z,4.80
2019-04-20T12:11:46.782Z,4.50
2019-04-20T12:13:24.895Z,4.50
2019-04-20T12:14:24.923Z,4.50
2019-04-20T12:16:17.313Z,4.40
2019-04-20T12:17:17.636Z,4.60
2019-04-20T12:19:08.734Z,4.90
2019-04-20T12:20:10.027Z,4.50
2019-04-20T12:22:00.786Z,4.50
2019-04-20T12:23:02.109Z,4.40
2019-04-20T12:24:54.038Z,4.60
2019-04-20T12:25:54.224Z,4.40
2019-04-20T12:27:50.766Z,4.60
2019-04-20T12:28:45.454Z,4.70
2019-04-20T12:30:37.661Z,4.60
2019-04-20T12:31:37.689Z,4.70
2019-04-20T12:33:30.548Z,4.50
2019-04-20T12:34:28.974Z,4.40
2019-04-20T12:36:21.138Z,4.50
2019-04-20T12:37:21.101Z,4.80
2019-04-20T12:39:13.335Z,4.60
2019-04-20T12:40:14.222Z,4.60
2019-04-20T12:42:08.155Z,4.50
2019-04-20T12:43:05.275Z,4.70
2019-04-20T12:44:57.773Z,4.60
2019-04-20T12:45:57.982Z,4.50
2019-04-20T12:47:51.364Z,4.50
2019-04-20T12:48:49.463Z,4.40
2019-04-20T12:50:41.615Z,4.50
2019-04-20T12:51:52.190Z,4.60
2019-04-20T12:53:34.934Z,4.30
2019-04-20T12:54:34.445Z,4.30
2019-04-20T12:56:26.552Z,4.60
2019-04-20T12:57:26.808Z,4.40
2019-04-20T12:59:17.955Z,4.60
2019-04-20T13:00:17.687Z,4.70
2019-04-20T13:02:09.784Z,4.50
2019-04-20T13:03:09.718Z,4.50
2019-04-20T13:05:01.788Z,4.60
2019-04-20T13:06:01.987Z,4.50
2019-04-20T13:07:57.874Z,4.60
2019-04-20T13:08:56.877Z,4.50
2019-04-20T13:10:46.562Z,4.70
2019-04-20T13:11:53.038Z,4.40
2019-04-20T13:13:38.654Z,4.40
2019-04-20T13:14:38.253Z,4.80
2019-04-20T13:16:30.409Z,4.50
2019-04-20T13:17:30.490Z,4.60
2019-04-20T13:19:22.279Z,4.80
2019-04-20T13:20:22.031Z,4.90
2019-04-20T13:22:14.809Z,4.70
2019-04-20T13:23:15.001Z,4.80
2019-04-20T13:25:07.313Z,4.80
2019-04-20T13:26:08.750Z,4.50
2019-04-20T13:27:58.931Z,4.60
2019-04-20T13:28:59.152Z,4.70
2019-04-20T13:30:50.414Z,4.60
2019-04-20T13:31:52.025Z,4.60
2019-04-20T13:33:43.251Z,4.70
2019-04-20T13:34:42.424Z,4.70
2019-04-20T13:36:34.628Z,4.80
2019-04-20T13:37:36.846Z,4.80
2019-04-20T13:39:26.878Z,4.80
2019-04-20T13:40:27.696Z,4.60
2019-04-20T13:42:23.271Z,4.50
2019-04-20T13:43:19.681Z,4.80
2019-04-20T13:45:10.792Z,4.50
2019-04-20T13:46:11.162Z,4.50
2019-04-20T13:48:04.239Z,4.60
2019-04-20T13:49:02.968Z,4.70
2019-04-20T13:50:55.949Z,4.70
2019-04-20T13:51:54.947Z,4.60
2019-04-20T13:53:47.650Z,4.70
2019-04-20T13:54:47.452Z,4.80
2019-04-20T13:56:39.731Z,4.90
2019-04-20T13:57:38.689Z,5.10
2019-04-20T13:59:31.849Z,4.50
2019-04-20T14:00:31.477Z,4.60
2019-04-20T14:02:22.808Z,4.70
2019-04-20T14:03:22.979Z,4.70
2019-04-20T14:05:14.883Z,4.40
2019-04-20T14:06:14.787Z,4.90
2019-04-20T14:08:07.444Z,4.60
2019-04-20T14:09:07.509Z,4.80
2019-04-20T14:10:59.673Z,4.50
2019-04-20T14:12:11.834Z,4.20
2019-04-20T14:13:57.008Z,4.90
2019-04-20T14:14:51.087Z,4.40
2019-04-20T14:16:43.121Z,4.60
2019-04-20T14:17:43.385Z,4.60
2019-04-20T14:19:35.136Z,4.70
2019-04-20T14:20:36.220Z,4.60
2019-04-20T14:22:27.270Z,4.70
2019-04-20T14:23:28.199Z,4.60
2019-04-20T14:25:19.177Z,4.60
2019-04-20T14:26:19.359Z,4.60
2019-04-20T14:28:11.383Z,4.90
2019-04-20T14:29:11.100Z,4.70
2019-04-20T14:31:03.765Z,4.50
2019-04-20T14:32:04.214Z,4.80
2019-04-20T14:33:55.267Z,4.60
2019-04-20T14:34:56.503Z,5.00
2019-04-20T14:36:48.703Z,4.60
2019-04-20T14:37:47.838Z,4.70
2019-04-20T14:39:40.553Z,4.80
2019-04-20T14:40:40.032Z,4.60
2019-04-20T14:42:40.370Z,4.70
2019-04-20T14:43:32.889Z,4.50
2019-04-20T14:45:24.663Z,5.00
2019-04-20T14:46:23.369Z,4.60
2019-04-20T14:48:16.381Z,5.10
2019-04-20T14:49:16.635Z,5.10
2019-04-20T14:51:07.761Z,4.70
2019-04-20T14:52:08.190Z,4.70
2019-04-20T14:53:59.709Z,4.70
2019-04-20T14:54:59.675Z,4.70
2019-04-20T14:56:51.803Z,4.70
2019-04-20T14:57:53.099Z,4.80
2019-04-20T14:59:43.779Z,4.60
2019-04-20T15:00:43.805Z,4.80
2019-04-20T15:02:36.279Z,4.80
2019-04-20T15:03:38.329Z,4.70
2019-04-20T15:05:28.848Z,5.30
2019-04-20T15:06:29.598Z,4.90
2019-04-20T15:08:20.635Z,4.60
2019-04-20T15:09:21.058Z,4.80
2019-04-20T15:11:12.707Z,4.80
2019-04-20T15:12:13.002Z,5.00
2019-04-20T15:14:04.782Z,4.70
2019-04-20T15:15:04.950Z,5.10
2019-04-20T15:16:56.464Z,4.80
2019-04-20T15:17:57.618Z,4.90
2019-04-20T15:19:49.591Z,4.80
2019-04-20T15:20:48.447Z,4.70
2019-04-20T15:22:41.385Z,5.00
2019-04-20T15:23:41.565Z,4.90
2019-04-20T15:25:32.424Z,4.90
2019-04-20T15:26:32.386Z,5.30
2019-04-20T15:28:24.542Z,4.80
2019-04-20T15:29:24.729Z,5.10
2019-04-20T15:31:16.604Z,4.70
2019-04-20T15:32:16.553Z,4.80
2019-04-20T15:34:08.904Z,5.10
2019-04-20T15:35:09.064Z,5.20
2019-04-20T15:37:00.737Z,5.00
2019-04-20T15:38:00.942Z,4.70
2019-04-20T15:39:52.899Z,4.80
2019-04-20T15:40:53.309Z,4.90
2019-04-20T15:42:56.062Z,5.00
2019-04-20T15:43:45.699Z,5.10
2019-04-20T15:45:37.151Z,5.30
2019-04-20T15:46:38.311Z,4.90
2019-04-20T15:48:30.040Z,4.90
2019-04-20T15:49:29.619Z,4.80
2019-04-20T15:51:21.721Z,4.70
2019-04-20T15:52:26.204Z,4.90
2019-04-20T15:54:13.541Z,5.00
2019-04-20T15:55:24.093Z,4.90
2019-04-20T15:57:14.154Z,4.80
2019-04-20T15:58:06.560Z,5.00
2019-04-20T15:59:58.210Z,4.90
2019-04-20T16:00:58.501Z,4.90
2019-04-20T16:02:49.555Z,4.90
2019-04-20T16:03:49.221Z,5.00
2019-04-20T16:05:41.290Z,5.30
2019-04-20T16:06:41.269Z,4.50
2019-04-20T16:08:34.596Z,5.00
2019-04-20T16:09:33.715Z,4.60
2019-04-20T16:11:26.664Z,5.10
2019-04-20T16:12:26.774Z,4.90
2019-04-20T16:14:17.559Z,4.90
2019-04-20T16:15:17.877Z,5.20
2019-04-20T16:17:12.321Z,5.00
2019-04-20T16:18:10.243Z,5.10
2019-04-20T16:20:08.329Z,4.90
2019-04-20T16:21:08.015Z,5.10
2019-04-20T16:22:54.387Z,4.90
2019-04-20T16:23:54.800Z,5.20
2019-04-20T16:25:45.813Z,5.10
2019-04-20T16:26:47.322Z,5.20
2019-04-20T16:28:37.775Z,4.90
2019-04-20T16:29:37.963Z,5.10
2019-04-20T16:31:30.883Z,4.90
2019-04-20T16:32:30.405Z,5.00
2019-04-20T16:34:23.261Z,5.00
2019-04-20T16:35:22.565Z,5.10
2019-04-20T16:37:14.788Z,5.00
2019-04-20T16:38:14.172Z,4.80
2019-04-20T16:40:07.479Z,5.00
2019-04-20T16:41:06.579Z,5.00
2019-04-20T16:42:58.528Z,5.20
2019-04-20T16:43:57.911Z,5.00
2019-04-20T16:45:50.986Z,5.00
2019-04-20T16:46:50.213Z,5.00
2019-04-20T16:48:42.177Z,5.30
2019-04-20T16:49:43.127Z,4.90
2019-04-20T16:51:34.751Z,4.90
2019-04-20T16:52:34.788Z,5.00
2019-04-20T16:54:26.098Z,4.90
2019-04-20T16:55:26.928Z,5.20
2019-04-20T16:57:19.422Z,5.30
2019-04-20T16:58:19.744Z,5.40
2019-04-20T17:00:11.450Z,4.80
2019-04-20T17:01:11.540Z,4.90
2019-04-20T17:03:02.589Z,5.20
2019-04-20T17:04:07.806Z,5.10
2019-04-20T17:05:54.350Z,5.20
2019-04-20T17:06:54.515Z,4.90
2019-04-20T17:08:47.788Z,4.90
2019-04-20T17:09:47.424Z,4.90
2019-04-20T17:11:39.442Z,4.90
2019-04-20T17:12:39.798Z,5.00
2019-04-20T17:14:31.699Z,5.10
2019-04-20T17:15:31.694Z,4.90
2019-04-20T17:17:22.465Z,4.90
2019-04-20T17:18:23.572Z,4.90
2019-04-20T17:20:15.593Z,5.00
2019-04-20T17:21:22.770Z,4.90
2019-04-20T17:23:08.658Z,4.80
2019-04-20T17:24:07.212Z,5.10
2019-04-20T17:25:59.762Z,5.30
2019-04-20T17:26:59.097Z,5.10
2019-04-20T17:28:53.448Z,5.20
2019-04-20T17:29:50.685Z,5.30
2019-04-20T17:31:43.086Z,5.10
2019-04-20T17:32:43.432Z,5.10
2019-04-20T17:34:50.596Z,4.80
2019-04-20T17:35:43.608Z,4.80
2019-04-20T17:37:29.847Z,5.00
2019-04-20T17:38:36.159Z,5.00
2019-04-20T17:40:44.369Z,4.90
2019-04-20T17:41:40.150Z,4.80
2019-04-20T17:43:19.838Z,4.80
2019-04-20T17:44:29.026Z,4.90
2019-04-20T17:46:12.012Z,4.90
2019-04-20T17:47:21.529Z,4.90
2019-04-20T17:49:09.440Z,5.10
2019-04-20T17:50:15.073Z,4.80
2019-04-20T17:52:12.638Z,4.90
2019-04-20T17:53:03.572Z,5.10
2019-04-20T17:54:39.803Z,5.50
2019-04-20T17:55:42.635Z,4.90
2019-04-20T17:57:31.247Z,4.90
2019-04-20T17:58:35.025Z,4.70
2019-04-20T18:00:24.190Z,4.80
2019-04-20T18:01:37.218Z,4.90
2019-04-20T18:03:52.894Z,4.90
2019-04-20T18:06:25.462Z,5.10
2019-04-20T18:07:31.321Z,4.90
2019-04-20T18:09:13.299Z,5.10
2019-04-20T18:10:17.169Z,4.60
2019-04-20T18:11:56.374Z,5.00
2019-04-20T18:12:55.413Z,5.00
2019-04-20T18:14:58.095Z,4.80
2019-04-20T18:15:57.484Z,4.90
2019-04-20T18:17:57.634Z,5.00
2019-04-20T18:18:48.789Z,5.40
2019-04-20T18:20:28.348Z,5.00
2019-04-20T18:21:28.752Z,5.00
2019-04-20T18:23:25.489Z,5.30
2019-04-20T18:24:43.178Z,4.80
2019-04-20T18:26:31.990Z,5.20
2019-04-20T18:27:32.037Z,5.10
2019-04-20T18:29:29.248Z,4.90
2019-04-20T18:30:22.845Z,4.80
2019-04-20T18:31:55.696Z,5.20
2019-04-20T18:32:55.749Z,5.40
2019-04-20T18:34:54.162Z,4.80
2019-04-20T18:35:49.493Z,5.00
2019-04-20T18:37:39.780Z,5.20
2019-04-20T18:38:48.053Z,5.10
2019-04-20T18:40:40.703Z,4.90
2019-04-20T18:41:38.359Z,5.10
2019-04-20T18:43:27.263Z,5.20
2019-04-20T18:44:30.595Z,5.10
2019-04-20T18:46:34.674Z,4.90
2019-04-20T18:47:33.328Z,5.30
2019-04-20T18:49:24.384Z,5.00
2019-04-20T18:50:17.528Z,5.00
2019-04-20T18:52:00.112Z,5.00
2019-04-20T18:53:00.155Z,5.20
2019-04-20T18:54:55.429Z,5.10
2019-04-20T18:55:55.975Z,5.40
2019-04-20T18:57:44.619Z,5.00
2019-04-20T18:58:45.232Z,4.80
2019-04-20T19:00:42.171Z,5.30
2019-04-20T19:01:38.405Z,5.00
2019-04-20T19:03:34.818Z,4.90
2019-04-20T19:04:28.134Z,4.70
2019-04-20T19:06:21.259Z,4.80
2019-04-20T19:07:21.719Z,4.80
2019-04-20T19:09:16.667Z,5.00
2019-04-20T19:10:18.637Z,5.40
2019-04-20T19:12:07.469Z,4.90
2019-04-20T19:13:06.660Z,4.90
2019-04-20T19:15:02.414Z,5.10
2019-04-20T19:16:12.716Z,5.10
2019-04-20T19:17:59.289Z,5.10
2019-04-20T19:19:02.981Z,5.00
2019-04-20T19:20:41.258Z,4.90
2019-04-20T19:21:40.746Z,5.00
2019-04-20T19:23:35.358Z,4.80
2019-04-20T19:24:36.008Z,5.80
2019-04-20T19:26:25.596Z,5.20
2019-04-20T19:27:36.072Z,5.00
2019-04-20T19:29:26.511Z,5.30
2019-04-20T19:30:27.410Z,5.10
2019-04-20T19:32:23.771Z,4.90
2019-04-20T19:33:22.650Z,4.70
2019-04-20T19:35:08.538Z,4.90
2019-04-20T19:36:15.202Z,5.00
2019-04-20T19:38:03.219Z,5.20
2019-04-20T19:39:10.979Z,4.80
2019-04-20T19:40:54.592Z,5.10